createdAt,value
2018-03-29T00:00:57.641Z,7.91
2018-03-29T00:01:57.656Z,7.89
2018-03-29T00:02:57.748Z,7.89
2018-03-29T00:03:57.679Z,7.85
2018-03-29T00:04:57.627Z,7.85
2018-03-29T00:05:57.640Z,7.85
2018-03-29T00:06:57.643Z,7.84
2018-03-29T00:07:57.649Z,7.81
2018-03-29T00:08:57.663Z,7.78
2018-03-29T00:09:57.704Z,7.78
2018-03-29T00:10:57.647Z,7.77
2018-03-29T00:11:57.649Z,7.75
2018-03-29T00:12:57.667Z,7.77
2018-03-29T00:13:57.688Z,7.78
2018-03-29T00:14:57.632Z,7.77
2018-03-29T00:15:57.650Z,7.74
2018-03-29T00:16:57.652Z,7.75
2018-03-29T00:17:57.642Z,7.78
2018-03-29T00:18:57.637Z,7.74
2018-03-29T00:19:57.678Z,7.72
2018-03-29T00:20:57.639Z,7.71
2018-03-29T00:21:57.662Z,7.69
2018-03-29T00:22:57.656Z,7.71
2018-03-29T00:23:57.648Z,7.67
2018-03-29T00:24:57.648Z,7.72
2018-03-29T00:25:57.660Z,7.69
2018-03-29T00:26:57.637Z,7.68
2018-03-29T00:27:57.640Z,7.64
2018-03-29T00:28:57.647Z,7.67
2018-03-29T00:29:57.650Z,7.62
2018-03-29T00:30:57.667Z,7.67
2018-03-29T00:31:57.652Z,7.65
2018-03-29T00:32:57.644Z,7.67
2018-03-29T00:33:57.701Z,7.64
2018-03-29T00:34:57.652Z,7.59
2018-03-29T00:35:57.834Z,7.61
2018-03-29T00:36:57.667Z,7.59
2018-03-29T00:37:57.642Z,7.58
2018-03-29T00:38:57.647Z,7.54
2018-03-29T00:39:57.655Z,7.55
2018-03-29T00:40:57.666Z,7.54
2018-03-29T00:41:57.639Z,7.55
2018-03-29T00:42:57.648Z,7.55
2018-03-29T00:43:57.669Z,7.58
2018-03-29T00:44:57.654Z,7.61
2018-03-29T00:45:57.640Z,7.57
2018-03-29T00:46:57.660Z,7.57
2018-03-29T00:47:57.658Z,7.55
2018-03-29T00:48:57.655Z,7.54
2018-03-29T00:49:57.655Z,7.54
2018-03-29T00:50:57.655Z,7.53
2018-03-29T00:51:57.641Z,7.51
2018-03-29T00:52:57.645Z,7.48
2018-03-29T00:53:57.687Z,7.53
2018-03-29T00:54:57.657Z,7.5
2018-03-29T00:55:57.644Z,7.48
2018-03-29T00:56:57.644Z,7.48
2018-03-29T00:57:57.651Z,7.44
2018-03-29T00:58:57.644Z,7.46
2018-03-29T00:59:57.683Z,7.48
2018-03-29T01:00:57.681Z,7.44
2018-03-29T01:01:57.648Z,7.44
2018-03-29T01:02:57.654Z,7.44
2018-03-29T01:03:58.125Z,7.44
2018-03-29T01:04:57.763Z,7.41
2018-03-29T01:05:57.655Z,7.44
2018-03-29T01:06:57.666Z,7.44
2018-03-29T01:07:57.665Z,7.4
2018-03-29T01:08:57.672Z,7.39
2018-03-29T01:09:57.650Z,7.36
2018-03-29T01:10:57.649Z,7.34
2018-03-29T01:11:57.660Z,7.33
2018-03-29T01:12:57.676Z,7.33
2018-03-29T01:13:57.657Z,7.34
2018-03-29T01:14:57.672Z,7.3
2018-03-29T01:15:57.664Z,7.31
2018-03-29T01:16:57.661Z,7.33
2018-03-29T01:17:57.702Z,7.36
2018-03-29T01:18:57.662Z,7.3
2018-03-29T01:19:57.666Z,7.3
2018-03-29T01:20:57.669Z,7.31
2018-03-29T01:21:57.658Z,7.34
2018-03-29T01:22:57.660Z,7.33
2018-03-29T01:23:57.665Z,7.33
2018-03-29T01:24:57.660Z,7.29
2018-03-29T01:25:57.664Z,7.27
2018-03-29T01:26:57.674Z,7.29
2018-03-29T01:27:57.668Z,7.24
2018-03-29T01:28:57.690Z,7.26
2018-03-29T01:29:57.718Z,7.24
2018-03-29T01:30:57.670Z,7.24
2018-03-29T01:31:57.672Z,7.26
2018-03-29T01:32:57.666Z,7.26
2018-03-29T01:33:57.659Z,7.23
2018-03-29T01:34:57.698Z,7.26
2018-03-29T01:35:57.736Z,7.23
2018-03-29T01:36:57.669Z,7.23
2018-03-29T01:37:57.671Z,7.19
2018-03-29T01:38:57.686Z,7.19
2018-03-29T01:39:57.701Z,7.22
2018-03-29T01:40:57.678Z,7.18
2018-03-29T01:41:57.682Z,7.2
2018-03-29T01:42:57.666Z,7.19
2018-03-29T01:43:57.954Z,7.19
2018-03-29T01:44:57.674Z,7.2
2018-03-29T01:45:57.706Z,7.16
2018-03-29T01:46:57.669Z,7.16
2018-03-29T01:47:57.668Z,7.16
2018-03-29T01:48:57.689Z,7.13
2018-03-29T01:49:57.694Z,7.12
2018-03-29T01:50:57.666Z,7.13
2018-03-29T01:51:57.675Z,7.15
2018-03-29T01:52:57.700Z,7.15
2018-03-29T01:53:57.962Z,7.15
2018-03-29T01:54:57.672Z,7.13
2018-03-29T01:55:57.678Z,7.13
2018-03-29T01:56:57.675Z,7.13
2018-03-29T01:57:57.671Z,7.13
2018-03-29T01:58:58.032Z,7.12
2018-03-29T01:59:57.759Z,7.13
2018-03-29T02:00:57.761Z,7.15
2018-03-29T02:01:57.679Z,7.13
2018-03-29T02:02:57.679Z,7.12
2018-03-29T02:03:57.754Z,7.11
2018-03-29T02:04:57.670Z,7.08
2018-03-29T02:05:57.697Z,7.09
2018-03-29T02:06:57.775Z,7.09
2018-03-29T02:07:57.679Z,7.12
2018-03-29T02:08:57.675Z,7.15
2018-03-29T02:09:57.685Z,7.16
2018-03-29T02:10:57.674Z,7.15
2018-03-29T02:11:57.677Z,7.13
2018-03-29T02:12:57.695Z,7.12
2018-03-29T02:13:57.679Z,7.13
2018-03-29T02:14:57.687Z,7.15
2018-03-29T02:15:57.678Z,7.15
2018-03-29T02:16:57.685Z,7.13
2018-03-29T02:17:57.671Z,7.09
2018-03-29T02:18:57.709Z,7.09
2018-03-29T02:19:57.678Z,7.08
2018-03-29T02:20:57.707Z,7.05
2018-03-29T02:21:57.681Z,7.05
2018-03-29T02:22:57.684Z,7.03
2018-03-29T02:23:57.676Z,7.05
2018-03-29T02:24:57.688Z,7.02
2018-03-29T02:25:57.692Z,7.03
2018-03-29T02:26:57.686Z,6.99
2018-03-29T02:27:57.675Z,6.98
2018-03-29T02:28:57.675Z,6.98
2018-03-29T02:29:57.680Z,6.96
2018-03-29T02:30:57.704Z,6.99
2018-03-29T02:31:57.692Z,7.03
2018-03-29T02:32:57.704Z,7.08
2018-03-29T02:33:57.684Z,7.03
2018-03-29T02:34:57.721Z,7.02
2018-03-29T02:35:57.771Z,7.01
2018-03-29T02:36:57.686Z,7.02
2018-03-29T02:37:57.773Z,6.99
2018-03-29T02:38:57.689Z,6.99
2018-03-29T02:39:57.715Z,6.99
2018-03-29T02:40:57.693Z,6.99
2018-03-29T02:41:57.698Z,6.98
2018-03-29T02:42:57.703Z,6.96
2018-03-29T02:43:57.685Z,6.95
2018-03-29T02:44:57.727Z,6.96
2018-03-29T02:45:57.698Z,6.96
2018-03-29T02:46:57.697Z,6.95
2018-03-29T02:47:57.711Z,6.99
2018-03-29T02:48:57.698Z,6.96
2018-03-29T02:49:57.717Z,6.94
2018-03-29T02:50:57.687Z,6.92
2018-03-29T02:51:57.709Z,6.94
2018-03-29T02:52:57.704Z,6.95
2018-03-29T02:53:57.691Z,6.9
2018-03-29T02:54:57.718Z,6.91
2018-03-29T02:55:57.689Z,6.96
2018-03-29T02:56:57.697Z,6.92
2018-03-29T02:57:57.681Z,6.92
2018-03-29T02:58:57.722Z,6.94
2018-03-29T02:59:57.743Z,6.95
2018-03-29T03:00:57.725Z,6.91
2018-03-29T03:01:57.696Z,6.88
2018-03-29T03:02:57.701Z,6.87
2018-03-29T03:03:57.714Z,6.9
2018-03-29T03:04:57.693Z,6.92
2018-03-29T03:05:57.713Z,6.9
2018-03-29T03:06:57.703Z,6.88
2018-03-29T03:07:57.698Z,6.94
2018-03-29T03:08:57.766Z,6.9
2018-03-29T03:09:57.739Z,6.92
2018-03-29T03:10:57.703Z,6.94
2018-03-29T03:11:58.355Z,6.92
2018-03-29T03:12:57.698Z,6.92
2018-03-29T03:13:57.695Z,6.94
2018-03-29T03:14:57.692Z,6.94
2018-03-29T03:15:57.701Z,6.88
2018-03-29T03:16:57.696Z,6.92
2018-03-29T03:17:57.702Z,6.9
2018-03-29T03:18:57.699Z,6.88
2018-03-29T03:19:57.757Z,6.88
2018-03-29T03:20:57.706Z,6.9
2018-03-29T03:21:57.701Z,6.9
2018-03-29T03:22:57.703Z,6.87
2018-03-29T03:23:57.707Z,6.91
2018-03-29T03:24:57.730Z,6.95
2018-03-29T03:25:57.698Z,6.92
2018-03-29T03:26:57.702Z,6.91
2018-03-29T03:27:57.702Z,6.91
2018-03-29T03:28:57.712Z,6.92
2018-03-29T03:29:57.786Z,6.96
2018-03-29T03:30:57.731Z,6.92
2018-03-29T03:31:57.701Z,6.91
2018-03-29T03:32:57.707Z,6.91
2018-03-29T03:33:57.708Z,6.85
2018-03-29T03:34:57.705Z,6.87
2018-03-29T03:35:57.899Z,6.83
2018-03-29T03:36:57.703Z,6.84
2018-03-29T03:37:57.710Z,6.85
2018-03-29T03:38:57.704Z,6.88
2018-03-29T03:39:57.756Z,6.87
2018-03-29T03:40:57.774Z,6.84
2018-03-29T03:41:57.701Z,6.85
2018-03-29T03:42:57.695Z,6.87
2018-03-29T03:43:57.716Z,6.85
2018-03-29T03:44:57.699Z,6.84
2018-03-29T03:45:57.723Z,6.84
2018-03-29T03:46:57.715Z,6.83
2018-03-29T03:47:57.702Z,6.78
2018-03-29T03:48:57.723Z,6.85
2018-03-29T03:49:57.706Z,6.84
2018-03-29T03:50:57.704Z,6.84
2018-03-29T03:51:57.705Z,6.84
2018-03-29T03:52:57.706Z,6.83
2018-03-29T03:53:57.706Z,6.83
2018-03-29T03:54:57.704Z,6.8
2018-03-29T03:55:57.727Z,6.84
2018-03-29T03:56:57.702Z,6.83
2018-03-29T03:57:57.708Z,6.84
2018-03-29T03:58:57.702Z,6.83
2018-03-29T03:59:57.709Z,6.84
2018-03-29T04:00:57.726Z,6.84
2018-03-29T04:01:57.714Z,6.84
2018-03-29T04:02:57.715Z,6.88
2018-03-29T04:03:57.709Z,6.88
2018-03-29T04:04:57.724Z,6.85
2018-03-29T04:05:57.714Z,6.84
2018-03-29T04:06:57.719Z,6.85
2018-03-29T04:07:57.715Z,6.85
2018-03-29T04:08:57.708Z,6.85
2018-03-29T04:09:57.714Z,6.81
2018-03-29T04:10:57.796Z,6.84
2018-03-29T04:11:58.094Z,6.83
2018-03-29T04:12:57.718Z,6.85
2018-03-29T04:13:57.724Z,6.81
2018-03-29T04:14:57.720Z,6.77
2018-03-29T04:15:57.718Z,6.8
2018-03-29T04:16:57.753Z,6.81
2018-03-29T04:17:57.712Z,6.83
2018-03-29T04:18:57.727Z,6.87
2018-03-29T04:19:57.838Z,6.8
2018-03-29T04:20:57.720Z,6.84
2018-03-29T04:21:57.739Z,6.84
2018-03-29T04:22:57.717Z,6.85
2018-03-29T04:23:57.723Z,6.83
2018-03-29T04:24:57.733Z,6.87
2018-03-29T04:25:57.732Z,6.87
2018-03-29T04:26:57.722Z,6.91
2018-03-29T04:27:57.752Z,6.85
2018-03-29T04:28:57.738Z,6.85
2018-03-29T04:29:57.723Z,6.84
2018-03-29T04:30:57.732Z,6.85
2018-03-29T04:31:57.727Z,6.9
2018-03-29T04:32:57.732Z,6.84
2018-03-29T04:33:57.731Z,6.85
2018-03-29T04:34:57.720Z,6.87
2018-03-29T04:35:57.741Z,6.83
2018-03-29T04:36:57.731Z,6.81
2018-03-29T04:37:57.719Z,6.83
2018-03-29T04:38:57.733Z,6.8
2018-03-29T04:39:57.759Z,6.8
2018-03-29T04:40:57.726Z,6.8
2018-03-29T04:41:57.806Z,6.77
2018-03-29T04:42:57.749Z,6.75
2018-03-29T04:43:57.736Z,6.75
2018-03-29T04:44:57.727Z,6.75
2018-03-29T04:45:57.732Z,6.74
2018-03-29T04:46:57.747Z,6.73
2018-03-29T04:47:57.730Z,6.68
2018-03-29T04:48:57.745Z,6.67
2018-03-29T04:49:57.760Z,6.67
2018-03-29T04:50:57.731Z,6.68
2018-03-29T04:51:57.747Z,6.64
2018-03-29T04:52:57.734Z,6.61
2018-03-29T04:53:57.737Z,6.64
2018-03-29T04:54:57.743Z,6.67
2018-03-29T04:55:57.730Z,6.63
2018-03-29T04:56:57.762Z,6.63
2018-03-29T04:57:57.760Z,6.63
2018-03-29T04:58:57.751Z,6.63
2018-03-29T04:59:57.787Z,6.61
2018-03-29T05:00:57.735Z,6.61
2018-03-29T05:01:57.731Z,6.63
2018-03-29T05:02:57.756Z,6.6
2018-03-29T05:03:57.747Z,6.57
2018-03-29T05:04:57.741Z,6.57
2018-03-29T05:05:57.748Z,6.57
2018-03-29T05:06:57.744Z,6.53
2018-03-29T05:07:57.798Z,6.48
2018-03-29T05:08:57.732Z,6.53
2018-03-29T05:09:57.751Z,6.5
2018-03-29T05:10:57.738Z,6.53
2018-03-29T05:11:57.749Z,6.5
2018-03-29T05:12:57.832Z,6.47
2018-03-29T05:13:57.758Z,6.53
2018-03-29T05:14:57.742Z,6.56
2018-03-29T05:15:57.748Z,6.54
2018-03-29T05:16:57.748Z,6.54
2018-03-29T05:17:57.745Z,6.51
2018-03-29T05:18:57.745Z,6.53
2018-03-29T05:19:57.739Z,6.48
2018-03-29T05:20:58.548Z,6.51
2018-03-29T05:21:57.752Z,6.51
2018-03-29T05:22:57.737Z,6.51
2018-03-29T05:23:57.744Z,6.53
2018-03-29T05:24:57.784Z,6.5
2018-03-29T05:25:57.768Z,6.44
2018-03-29T05:26:57.741Z,6.48
2018-03-29T05:27:57.773Z,6.48
2018-03-29T05:28:57.744Z,6.5
2018-03-29T05:29:57.748Z,6.48
2018-03-29T05:30:57.754Z,6.5
2018-03-29T05:31:58.130Z,6.48
2018-03-29T05:32:57.766Z,6.51
2018-03-29T05:33:57.745Z,6.51
2018-03-29T05:34:57.766Z,6.51
2018-03-29T05:35:57.752Z,6.48
2018-03-29T05:36:57.771Z,6.47
2018-03-29T05:37:57.778Z,6.47
2018-03-29T05:38:57.746Z,6.5
2018-03-29T05:39:57.748Z,6.51
2018-03-29T05:40:57.749Z,6.47
2018-03-29T05:41:57.764Z,6.47
2018-03-29T05:42:57.751Z,6.48
2018-03-29T05:43:57.813Z,6.44
2018-03-29T05:44:57.781Z,6.47
2018-03-29T05:45:57.753Z,6.48
2018-03-29T05:46:57.852Z,6.48
2018-03-29T05:47:57.754Z,6.53
2018-03-29T05:48:57.770Z,6.53
2018-03-29T05:49:57.761Z,6.51
2018-03-29T05:50:57.756Z,6.53
2018-03-29T05:51:57.967Z,6.53
2018-03-29T05:52:57.757Z,6.53
2018-03-29T05:53:57.938Z,6.51
2018-03-29T05:54:57.749Z,6.5
2018-03-29T05:55:57.761Z,6.5
2018-03-29T05:56:57.787Z,6.47
2018-03-29T05:57:57.754Z,6.47
2018-03-29T05:58:57.777Z,6.47
2018-03-29T05:59:57.776Z,6.48
2018-03-29T06:00:57.766Z,6.5
2018-03-29T06:01:57.831Z,6.51
2018-03-29T06:02:57.817Z,6.54
2018-03-29T06:03:57.763Z,6.54
2018-03-29T06:04:57.753Z,6.57
2018-03-29T06:05:57.757Z,6.57
2018-03-29T06:06:57.789Z,6.6
2018-03-29T06:07:57.766Z,6.58
2018-03-29T06:08:57.765Z,6.56
2018-03-29T06:09:57.799Z,6.51
2018-03-29T06:10:57.882Z,6.56
2018-03-29T06:11:57.929Z,6.56
2018-03-29T06:12:57.765Z,6.56
2018-03-29T06:13:57.758Z,6.57
2018-03-29T06:14:57.826Z,6.58
2018-03-29T06:15:57.764Z,6.6
2018-03-29T06:16:57.806Z,6.58
2018-03-29T06:17:57.759Z,6.56
2018-03-29T06:18:57.761Z,6.53
2018-03-29T06:19:57.918Z,6.56
2018-03-29T06:20:57.762Z,6.56
2018-03-29T06:21:57.773Z,6.54
2018-03-29T06:22:57.796Z,6.56
2018-03-29T06:23:58.805Z,6.6
2018-03-29T06:24:57.764Z,6.63
2018-03-29T06:25:57.774Z,6.61
2018-03-29T06:26:58.439Z,6.63
2018-03-29T06:27:57.911Z,6.64
2018-03-29T06:28:57.776Z,6.65
2018-03-29T06:29:57.864Z,6.67
2018-03-29T06:30:57.778Z,6.64
2018-03-29T06:31:57.799Z,6.67
2018-03-29T06:32:58.628Z,6.67
2018-03-29T06:33:57.802Z,6.7
2018-03-29T06:34:57.767Z,6.73
2018-03-29T06:35:57.761Z,6.75
2018-03-29T06:36:57.763Z,6.74
2018-03-29T06:37:57.796Z,6.77
2018-03-29T06:38:57.770Z,6.77
2018-03-29T06:39:57.783Z,6.78
2018-03-29T06:40:57.787Z,6.8
2018-03-29T06:41:57.787Z,6.78
2018-03-29T06:42:58.286Z,6.83
2018-03-29T06:43:57.863Z,6.8
2018-03-29T06:44:57.784Z,6.8
2018-03-29T06:45:57.811Z,6.81
2018-03-29T06:46:57.944Z,6.83
2018-03-29T06:47:57.788Z,6.87
2018-03-29T06:48:57.770Z,6.85
2018-03-29T06:49:57.773Z,6.81
2018-03-29T06:50:57.772Z,6.81
2018-03-29T06:51:57.771Z,6.84
2018-03-29T06:52:58.083Z,6.84
2018-03-29T06:53:57.771Z,6.84
2018-03-29T06:54:57.824Z,6.88
2018-03-29T06:55:57.756Z,6.87
2018-03-29T06:56:57.766Z,6.91
2018-03-29T06:57:57.792Z,6.9
2018-03-29T06:58:57.769Z,6.91
2018-03-29T06:59:57.764Z,6.94
2018-03-29T07:00:57.974Z,6.94
2018-03-29T07:01:57.768Z,6.94
2018-03-29T07:02:57.796Z,6.95
2018-03-29T07:03:57.784Z,6.95
2018-03-29T07:04:57.791Z,6.94
2018-03-29T07:05:57.789Z,6.92
2018-03-29T07:06:57.787Z,6.94
2018-03-29T07:07:57.772Z,6.91
2018-03-29T07:08:57.770Z,6.95
2018-03-29T07:09:57.781Z,6.94
2018-03-29T07:10:57.792Z,6.95
2018-03-29T07:11:57.831Z,6.94
2018-03-29T07:12:57.769Z,6.95
2018-03-29T07:13:57.781Z,6.94
2018-03-29T07:14:57.910Z,6.96
2018-03-29T07:15:57.768Z,6.95
2018-03-29T07:16:57.876Z,6.98
2018-03-29T07:17:57.794Z,6.91
2018-03-29T07:18:57.809Z,6.92
2018-03-29T07:19:57.790Z,6.94
2018-03-29T07:20:57.785Z,6.95
2018-03-29T07:21:57.785Z,6.94
2018-03-29T07:22:57.796Z,6.98
2018-03-29T07:23:57.788Z,6.98
2018-03-29T07:24:57.777Z,6.99
2018-03-29T07:25:57.785Z,6.98
2018-03-29T07:26:57.796Z,6.99
2018-03-29T07:27:57.779Z,6.98
2018-03-29T07:28:57.785Z,6.96
2018-03-29T07:29:57.783Z,6.98
2018-03-29T07:30:57.797Z,7.02
2018-03-29T07:31:57.798Z,7.02
2018-03-29T07:32:57.795Z,7.06
2018-03-29T07:33:57.787Z,7.06
2018-03-29T07:34:58.193Z,7.08
2018-03-29T07:35:57.799Z,7.12
2018-03-29T07:36:57.852Z,7.15
2018-03-29T07:37:57.793Z,7.22
2018-03-29T07:38:57.783Z,7.24
2018-03-29T07:39:57.837Z,7.23
2018-03-29T07:40:57.816Z,7.31
2018-03-29T07:41:57.779Z,7.31
2018-03-29T07:42:57.781Z,7.33
2018-03-29T07:43:57.788Z,7.34
2018-03-29T07:44:57.784Z,7.39
2018-03-29T07:45:57.791Z,7.4
2018-03-29T07:46:57.797Z,7.47
2018-03-29T07:47:57.855Z,7.47
2018-03-29T07:48:58.055Z,7.5
2018-03-29T07:49:57.830Z,7.48
2018-03-29T07:50:57.802Z,7.54
2018-03-29T07:51:57.798Z,7.55
2018-03-29T07:52:57.787Z,7.62
2018-03-29T07:53:57.828Z,7.67
2018-03-29T07:54:57.803Z,7.67
2018-03-29T07:55:57.789Z,7.74
2018-03-29T07:56:57.807Z,7.67
2018-03-29T07:57:57.985Z,7.72
2018-03-29T07:58:57.829Z,7.72
2018-03-29T07:59:57.805Z,7.78
2018-03-29T08:00:57.798Z,7.75
2018-03-29T08:01:57.786Z,7.77
2018-03-29T08:02:57.802Z,7.71
2018-03-29T08:03:57.812Z,7.64
2018-03-29T08:04:57.787Z,7.57
2018-03-29T08:05:57.795Z,7.62
2018-03-29T08:06:57.805Z,7.64
2018-03-29T08:07:57.786Z,7.62
2018-03-29T08:08:57.788Z,7.58
2018-03-29T08:09:57.824Z,7.54
2018-03-29T08:10:57.794Z,7.54
2018-03-29T08:11:57.792Z,7.53
2018-03-29T08:12:57.789Z,7.53
2018-03-29T08:13:57.815Z,7.55
2018-03-29T08:14:57.866Z,7.48
2018-03-29T08:15:57.789Z,7.5
2018-03-29T08:16:57.786Z,7.46
2018-03-29T08:17:57.795Z,7.46
2018-03-29T08:18:57.866Z,7.5
2018-03-29T08:19:57.790Z,7.51
2018-03-29T08:20:57.888Z,7.55
2018-03-29T08:21:57.806Z,7.55
2018-03-29T08:22:57.797Z,7.57
2018-03-29T08:23:57.823Z,7.57
2018-03-29T08:24:57.814Z,7.59
2018-03-29T08:25:57.793Z,7.61
2018-03-29T08:26:57.801Z,7.62
2018-03-29T08:27:57.814Z,7.65
2018-03-29T08:28:57.894Z,7.65
2018-03-29T08:29:57.804Z,7.62
2018-03-29T08:30:57.793Z,7.61
2018-03-29T08:31:57.833Z,7.59
2018-03-29T08:32:57.803Z,7.62
2018-03-29T08:33:57.830Z,7.64
2018-03-29T08:34:57.806Z,7.64
2018-03-29T08:35:57.801Z,7.64
2018-03-29T08:36:57.807Z,7.62
2018-03-29T08:37:57.799Z,7.62
2018-03-29T08:38:57.817Z,7.58
2018-03-29T08:39:57.873Z,7.59
2018-03-29T08:40:57.840Z,7.61
2018-03-29T08:41:57.804Z,7.62
2018-03-29T08:42:57.793Z,7.55
2018-03-29T08:43:57.806Z,7.58
2018-03-29T08:44:57.808Z,7.59
2018-03-29T08:45:57.921Z,7.61
2018-03-29T08:46:57.896Z,7.61
2018-03-29T08:47:57.792Z,7.59
2018-03-29T08:48:57.874Z,7.62
2018-03-29T08:49:57.894Z,7.62
2018-03-29T08:50:57.803Z,7.65
2018-03-29T08:51:57.797Z,7.61
2018-03-29T08:52:57.802Z,7.62
2018-03-29T08:53:57.802Z,7.68
2018-03-29T08:54:57.810Z,7.64
2018-03-29T08:55:57.815Z,7.67
2018-03-29T08:56:57.806Z,7.69
2018-03-29T08:57:57.813Z,7.74
2018-03-29T08:58:57.812Z,7.71
2018-03-29T08:59:57.801Z,7.77
2018-03-29T09:00:57.815Z,7.75
2018-03-29T09:01:57.823Z,7.77
2018-03-29T09:02:57.838Z,7.8
2018-03-29T09:03:57.816Z,7.81
2018-03-29T09:04:57.837Z,7.82
2018-03-29T09:05:57.804Z,7.88
2018-03-29T09:06:57.811Z,7.85
2018-03-29T09:07:57.816Z,7.85
2018-03-29T09:08:57.813Z,7.88
2018-03-29T09:09:57.885Z,7.92
2018-03-29T09:10:57.821Z,7.92
2018-03-29T09:11:57.817Z,7.93
2018-03-29T09:12:57.808Z,7.93
2018-03-29T09:13:57.804Z,7.92
2018-03-29T09:14:57.811Z,7.99
2018-03-29T09:15:57.812Z,8.05
2018-03-29T09:16:57.886Z,8.14
2018-03-29T09:17:57.894Z,8.23
2018-03-29T09:18:57.975Z,8.31
2018-03-29T09:19:57.810Z,8.43
2018-03-29T09:20:57.897Z,8.43
2018-03-29T09:21:57.811Z,8.47
2018-03-29T09:22:57.813Z,8.49
2018-03-29T09:23:57.837Z,8.48
2018-03-29T09:24:57.844Z,8.52
2018-03-29T09:25:57.830Z,8.51
2018-03-29T09:26:57.820Z,8.52
2018-03-29T09:27:57.822Z,8.55
2018-03-29T09:28:57.815Z,8.55
2018-03-29T09:29:57.907Z,8.57
2018-03-29T09:30:57.834Z,8.59
2018-03-29T09:31:57.821Z,8.59
2018-03-29T09:32:57.825Z,8.62
2018-03-29T09:33:57.819Z,8.68
2018-03-29T09:34:57.837Z,8.66
2018-03-29T09:35:57.823Z,8.72
2018-03-29T09:36:57.829Z,8.78
2018-03-29T09:37:57.852Z,8.86
2018-03-29T09:38:58.327Z,8.83
2018-03-29T09:39:57.828Z,8.86
2018-03-29T09:40:57.830Z,8.86
2018-03-29T09:41:57.837Z,8.92
2018-03-29T09:42:57.819Z,8.95
2018-03-29T09:43:57.822Z,8.98
2018-03-29T09:44:57.828Z,9.02
2018-03-29T09:45:57.826Z,9.07
2018-03-29T09:46:57.821Z,9.07
2018-03-29T09:47:57.848Z,9.09
2018-03-29T09:48:57.831Z,9.23
2018-03-29T09:49:57.824Z,9.34
2018-03-29T09:50:57.820Z,9.4
2018-03-29T09:51:57.930Z,9.41
2018-03-29T09:52:57.846Z,9.42
2018-03-29T09:53:57.838Z,9.45
2018-03-29T09:54:57.843Z,9.47
2018-03-29T09:55:57.823Z,9.49
2018-03-29T09:56:57.855Z,9.48
2018-03-29T09:57:57.839Z,9.51
2018-03-29T09:58:57.827Z,9.59
2018-03-29T09:59:57.840Z,9.59
2018-03-29T10:00:57.825Z,9.51
2018-03-29T10:01:57.872Z,9.52
2018-03-29T10:02:57.837Z,9.54
2018-03-29T10:03:57.827Z,9.59
2018-03-29T10:04:57.828Z,9.58
2018-03-29T10:05:57.828Z,9.57
2018-03-29T10:06:57.833Z,9.58
2018-03-29T10:07:57.830Z,9.59
2018-03-29T10:08:57.851Z,9.66
2018-03-29T10:09:57.840Z,9.69
2018-03-29T10:10:57.835Z,9.72
2018-03-29T10:11:57.835Z,9.69
2018-03-29T10:12:57.839Z,9.72
2018-03-29T10:13:57.833Z,9.7
2018-03-29T10:14:57.835Z,9.65
2018-03-29T10:15:58.134Z,9.62
2018-03-29T10:16:57.856Z,9.66
2018-03-29T10:17:57.839Z,9.69
2018-03-29T10:18:57.839Z,9.68
2018-03-29T10:19:57.846Z,9.61
2018-03-29T10:20:57.884Z,9.65
2018-03-29T10:21:57.857Z,9.65
2018-03-29T10:22:57.919Z,9.65
2018-03-29T10:23:57.851Z,9.66
2018-03-29T10:24:57.852Z,9.69
2018-03-29T10:25:57.850Z,9.68
2018-03-29T10:26:57.838Z,9.66
2018-03-29T10:27:57.841Z,9.7
2018-03-29T10:28:57.851Z,9.73
2018-03-29T10:29:57.862Z,9.82
2018-03-29T10:30:57.863Z,9.89
2018-03-29T10:31:57.835Z,9.96
2018-03-29T10:32:57.862Z,10
2018-03-29T10:33:57.846Z,10.04
2018-03-29T10:34:57.844Z,10.06
2018-03-29T10:35:57.833Z,10.03
2018-03-29T10:36:57.833Z,10.06
2018-03-29T10:37:57.851Z,10.04
2018-03-29T10:38:57.846Z,10
2018-03-29T10:39:57.863Z,9.97
2018-03-29T10:40:57.832Z,9.93
2018-03-29T10:41:57.836Z,9.94
2018-03-29T10:42:57.842Z,10.03
2018-03-29T10:43:57.906Z,10.13
2018-03-29T10:44:57.852Z,10.21
2018-03-29T10:45:57.855Z,10.27
2018-03-29T10:46:57.903Z,10.38
2018-03-29T10:47:57.840Z,10.31
2018-03-29T10:48:57.848Z,10.34
2018-03-29T10:49:57.838Z,10.34
2018-03-29T10:50:57.847Z,10.42
2018-03-29T10:51:57.865Z,10.53
2018-03-29T10:52:57.883Z,10.64
2018-03-29T10:53:57.922Z,10.69
2018-03-29T10:54:57.833Z,10.71
2018-03-29T10:55:57.842Z,10.78
2018-03-29T10:56:57.841Z,10.86
2018-03-29T10:57:57.856Z,10.92
2018-03-29T10:58:57.853Z,11
2018-03-29T10:59:57.846Z,11
2018-03-29T11:00:57.874Z,10.99
2018-03-29T11:01:57.867Z,11.04
2018-03-29T11:02:57.849Z,11.07
2018-03-29T11:03:57.856Z,11.11
2018-03-29T11:04:57.863Z,11.14
2018-03-29T11:05:57.857Z,11.12
2018-03-29T11:06:57.880Z,11.06
2018-03-29T11:07:57.932Z,11.01
2018-03-29T11:08:57.858Z,11.06
2018-03-29T11:09:57.864Z,11.06
2018-03-29T11:10:57.848Z,11.03
2018-03-29T11:11:57.878Z,11.04
2018-03-29T11:12:57.907Z,11.04
2018-03-29T11:13:57.872Z,10.75
2018-03-29T11:14:57.895Z,10.69
2018-03-29T11:15:57.885Z,10.58
2018-03-29T11:16:57.917Z,10.49
2018-03-29T11:17:57.871Z,10.52
2018-03-29T11:18:57.855Z,10.53
2018-03-29T11:19:57.854Z,10.61
2018-03-29T11:20:57.857Z,10.65
2018-03-29T11:21:57.881Z,10.64
2018-03-29T11:22:57.862Z,10.72
2018-03-29T11:23:57.878Z,10.84
2018-03-29T11:24:58.057Z,10.89
2018-03-29T11:25:57.892Z,10.97
2018-03-29T11:26:57.870Z,10.86
2018-03-29T11:27:57.860Z,10.9
2018-03-29T11:28:57.881Z,10.9
2018-03-29T11:29:57.907Z,10.73
2018-03-29T11:30:57.866Z,10.83
2018-03-29T11:31:57.876Z,10.89
2018-03-29T11:32:57.883Z,10.92
2018-03-29T11:33:57.875Z,10.94
2018-03-29T11:34:57.870Z,10.94
2018-03-29T11:35:57.920Z,10.97
2018-03-29T11:36:57.865Z,11.01
2018-03-29T11:37:57.917Z,10.9
2018-03-29T11:38:57.880Z,10.89
2018-03-29T11:39:57.885Z,10.89
2018-03-29T11:40:57.879Z,10.83
2018-03-29T11:41:57.884Z,10.86
2018-03-29T11:42:57.865Z,10.82
2018-03-29T11:43:57.887Z,10.94
2018-03-29T11:44:57.874Z,11
2018-03-29T11:45:57.884Z,11
2018-03-29T11:46:57.888Z,10.97
2018-03-29T11:47:57.873Z,10.96
2018-03-29T11:48:57.872Z,11.04
2018-03-29T11:49:57.873Z,11.08
2018-03-29T11:50:57.878Z,11.1
2018-03-29T11:51:57.878Z,11.12
2018-03-29T11:52:57.946Z,11.15
2018-03-29T11:53:57.862Z,10.99
2018-03-29T11:54:57.872Z,11.04
2018-03-29T11:55:57.937Z,11.01
2018-03-29T11:56:57.880Z,11.06
2018-03-29T11:57:57.884Z,11.03
2018-03-29T11:58:57.896Z,11.06
2018-03-29T11:59:57.887Z,11.04
2018-03-29T12:00:57.882Z,11.01
2018-03-29T12:01:57.954Z,11
2018-03-29T12:02:57.915Z,10.89
2018-03-29T12:03:57.876Z,10.9
2018-03-29T12:04:57.915Z,10.84
2018-03-29T12:05:57.993Z,10.79
2018-03-29T12:06:57.877Z,10.71
2018-03-29T12:07:57.883Z,10.71
2018-03-29T12:08:57.952Z,10.75
2018-03-29T12:09:57.896Z,10.76
2018-03-29T12:10:57.924Z,10.8
2018-03-29T12:11:57.877Z,10.92
2018-03-29T12:12:57.905Z,10.96
2018-03-29T12:13:57.879Z,10.97
2018-03-29T12:14:57.893Z,10.99
2018-03-29T12:15:57.902Z,10.87
2018-03-29T12:16:57.902Z,10.93
2018-03-29T12:17:57.889Z,10.99
2018-03-29T12:18:57.942Z,11.04
2018-03-29T12:19:57.896Z,10.99
2018-03-29T12:20:57.887Z,10.92
2018-03-29T12:21:57.886Z,10.96
2018-03-29T12:22:57.887Z,10.93
2018-03-29T12:23:57.910Z,10.92
2018-03-29T12:24:57.881Z,11
2018-03-29T12:25:57.888Z,11.03
2018-03-29T12:26:57.946Z,11.04
2018-03-29T12:27:57.889Z,11.07
2018-03-29T12:28:57.895Z,11.12
2018-03-29T12:29:57.903Z,11.08
2018-03-29T12:30:57.933Z,11.14
2018-03-29T12:31:57.917Z,11.14
2018-03-29T12:32:57.897Z,11.12
2018-03-29T12:33:57.887Z,11.07
2018-03-29T12:34:57.976Z,11.03
2018-03-29T12:35:57.911Z,11.04
2018-03-29T12:36:57.894Z,11.06
2018-03-29T12:37:57.944Z,11.04
2018-03-29T12:38:57.898Z,11.04
2018-03-29T12:39:57.929Z,10.9
2018-03-29T12:40:57.906Z,10.75
2018-03-29T12:41:57.891Z,10.82
2018-03-29T12:42:57.896Z,10.79
2018-03-29T12:43:57.891Z,10.79
2018-03-29T12:44:58.192Z,10.69
2018-03-29T12:45:57.890Z,10.76
2018-03-29T12:46:58.054Z,10.72
2018-03-29T12:47:57.910Z,10.76
2018-03-29T12:48:57.909Z,10.82
2018-03-29T12:49:57.930Z,10.86
2018-03-29T12:50:57.908Z,10.89
2018-03-29T12:51:57.923Z,10.96
2018-03-29T12:52:57.901Z,11.04
2018-03-29T12:53:57.917Z,11.03
2018-03-29T12:54:57.927Z,11.04
2018-03-29T12:55:57.893Z,11.08
2018-03-29T12:56:57.908Z,11.14
2018-03-29T12:58:01.043Z,11.25
2018-03-29T12:58:58.606Z,11.35
2018-03-29T12:59:58.799Z,11.45
2018-03-29T13:00:57.937Z,11.51
2018-03-29T13:01:57.907Z,11.51
2018-03-29T13:02:57.910Z,11.32
2018-03-29T13:03:59.053Z,11.27
2018-03-29T13:04:57.932Z,11.31
2018-03-29T13:05:58.084Z,11.27
2018-03-29T13:06:57.919Z,11.27
2018-03-29T13:07:57.930Z,11.22
2018-03-29T13:08:57.909Z,11.28
2018-03-29T13:09:57.916Z,11.28
2018-03-29T13:10:57.906Z,11.22
2018-03-29T13:12:05.070Z,11.24
2018-03-29T13:12:57.911Z,11.24
2018-03-29T13:13:57.919Z,11.28
2018-03-29T13:14:57.913Z,11.22
2018-03-29T13:15:57.914Z,11.2